sensor_id;sensor_type;location;lat;lon;timestamp;pressure;altitude;pressure_sealevel;temperature;humidity
66090;BME280;53113;45.602;11.904;2022-08-18T00:01:22;100985.42;;;23.92;67.75
66090;BME280;53113;45.602;11.904;2022-08-18T00:03:49;100977.49;;;23.92;67.71
66090;BME280;53113;45.602;11.904;2022-08-18T00:06:18;100972.70;;;23.91;67.60
66090;BME280;53113;45.602;11.904;2022-08-18T00:08:44;100969.52;;;23.91;67.62
66090;BME280;53113;45.602;11.904;2022-08-18T00:11:10;100965.25;;;23.89;67.70
66090;BME280;53113;45.602;11.904;2022-08-18T00:13:36;100969.98;;;23.84;67.85
66090;BME280;53113;45.602;11.904;2022-08-18T00:16:02;100972.63;;;23.82;67.66
66090;BME280;53113;45.602;11.904;2022-08-18T00:18:28;100969.66;;;23.82;67.72
66090;BME280;53113;45.602;11.904;2022-08-18T00:20:53;100967.79;;;23.82;67.61
66090;BME280;53113;45.602;11.904;2022-08-18T00:23:19;100962.23;;;23.80;67.56
66090;BME280;53113;45.602;11.904;2022-08-18T00:25:45;100964.05;;;23.77;67.64
66090;BME280;53113;45.602;11.904;2022-08-18T00:28:11;100959.89;;;23.74;67.71
66090;BME280;53113;45.602;11.904;2022-08-18T00:30:38;100954.92;;;23.72;67.80
66090;BME280;53113;45.602;11.904;2022-08-18T00:33:05;100957.05;;;23.72;67.60
66090;BME280;53113;45.602;11.904;2022-08-18T00:35:33;100955.20;;;23.71;67.70
66090;BME280;53113;45.602;11.904;2022-08-18T00:38:02;100947.15;;;23.70;67.72
66090;BME280;53113;45.602;11.904;2022-08-18T00:40:32;100939.98;;;23.70;67.59
66090;BME280;53113;45.602;11.904;2022-08-18T00:43:04;100933.50;;;23.67;67.57
66090;BME280;53113;45.602;11.904;2022-08-18T00:45:35;100922.48;;;23.64;67.64
66090;BME280;53113;45.602;11.904;2022-08-18T00:48:07;100918.73;;;23.61;67.81
66090;BME280;53113;45.602;11.904;2022-08-18T00:50:46;100915.70;;;23.59;68.03
66090;BME280;53113;45.602;11.904;2022-08-18T00:55:45;100925.61;;;23.60;67.91
66090;BME280;53113;45.602;11.904;2022-08-18T00:58:14;100929.17;;;23.58;67.95
66090;BME280;53113;45.602;11.904;2022-08-18T01:00:43;100933.70;;;23.58;68.12
66090;BME280;53113;45.602;11.904;2022-08-18T01:03:13;100937.67;;;23.54;68.20
66090;BME280;53113;45.602;11.904;2022-08-18T01:06:32;100939.45;;;23.51;68.46
66090;BME280;53113;45.602;11.904;2022-08-18T01:08:57;100935.36;;;23.52;68.35
66090;BME280;53113;45.602;11.904;2022-08-18T01:11:23;100928.41;;;23.52;68.36
66090;BME280;53113;45.602;11.904;2022-08-18T01:13:49;100922.40;;;23.51;68.38
66090;BME280;53113;45.602;11.904;2022-08-18T01:16:17;100921.27;;;23.48;68.48
66090;BME280;53113;45.602;11.904;2022-08-18T01:19:01;100919.80;;;23.48;68.87
66090;BME280;53113;45.602;11.904;2022-08-18T01:21:50;100910.70;;;23.49;69.08
66090;BME280;53113;45.602;11.904;2022-08-18T01:24:36;100911.04;;;23.49;69.03
66090;BME280;53113;45.602;11.904;2022-08-18T01:27:38;100914.55;;;23.49;69.33
66090;BME280;53113;45.602;11.904;2022-08-18T01:30:10;100912.32;;;23.46;69.56
66090;BME280;53113;45.602;11.904;2022-08-18T01:32:37;100915.98;;;23.46;69.65
66090;BME280;53113;45.602;11.904;2022-08-18T01:35:05;100928.67;;;23.47;69.53
66090;BME280;53113;45.602;11.904;2022-08-18T01:37:33;100930.77;;;23.49;69.51
66090;BME280;53113;45.602;11.904;2022-08-18T01:39:59;100939.11;;;23.50;69.73
66090;BME280;53113;45.602;11.904;2022-08-18T01:42:29;100941.11;;;23.50;69.74
66090;BME280;53113;45.602;11.904;2022-08-18T01:44:55;100941.89;;;23.49;69.79
66090;BME280;53113;45.602;11.904;2022-08-18T01:47:21;100946.23;;;23.48;69.87
66090;BME280;53113;45.602;11.904;2022-08-18T01:49:47;100950.40;;;23.48;69.92
66090;BME280;53113;45.602;11.904;2022-08-18T01:52:16;100945.38;;;23.46;70.05
66090;BME280;53113;45.602;11.904;2022-08-18T01:54:44;100948.82;;;23.50;70.11
66090;BME280;53113;45.602;11.904;2022-08-18T01:57:10;100942.87;;;23.52;70.15
66090;BME280;53113;45.602;11.904;2022-08-18T01:59:38;100938.98;;;23.51;70.16
66090;BME280;53113;45.602;11.904;2022-08-18T02:02:04;100942.98;;;23.49;70.24
66090;BME280;53113;45.602;11.904;2022-08-18T02:04:32;100945.40;;;23.49;70.32
66090;BME280;53113;45.602;11.904;2022-08-18T02:06:59;100944.98;;;23.48;70.55
66090;BME280;53113;45.602;11.904;2022-08-18T02:09:27;100947.45;;;23.49;70.57
66090;BME280;53113;45.602;11.904;2022-08-18T02:11:54;100942.14;;;23.53;70.62
66090;BME280;53113;45.602;11.904;2022-08-18T02:14:20;100941.60;;;23.54;70.74
66090;BME280;53113;45.602;11.904;2022-08-18T02:16:46;100935.36;;;23.55;70.69
66090;BME280;53113;45.602;11.904;2022-08-18T02:19:12;100932.92;;;23.54;71.00
66090;BME280;53113;45.602;11.904;2022-08-18T02:21:39;100936.33;;;23.55;70.96
66090;BME280;53113;45.602;11.904;2022-08-18T02:24:05;100934.67;;;23.55;71.10
66090;BME280;53113;45.602;11.904;2022-08-18T02:26:31;100934.13;;;23.57;71.19
66090;BME280;53113;45.602;11.904;2022-08-18T02:28:56;100933.01;;;23.58;71.34
66090;BME280;53113;45.602;11.904;2022-08-18T02:31:23;100930.42;;;23.59;71.30
66090;BME280;53113;45.602;11.904;2022-08-18T02:33:50;100929.03;;;23.61;71.43
66090;BME280;53113;45.602;11.904;2022-08-18T02:36:16;100934.82;;;23.61;71.42
66090;BME280;53113;45.602;11.904;2022-08-18T02:38:43;100932.66;;;23.62;71.58
66090;BME280;53113;45.602;11.904;2022-08-18T02:41:10;100935.53;;;23.64;71.63
66090;BME280;53113;45.602;11.904;2022-08-18T02:43:38;100928.36;;;23.68;71.71
66090;BME280;53113;45.602;11.904;2022-08-18T02:46:05;100923.62;;;23.69;71.91
66090;BME280;53113;45.602;11.904;2022-08-18T02:48:32;100919.66;;;23.70;71.90
66090;BME280;53113;45.602;11.904;2022-08-18T02:51:19;100913.36;;;23.70;72.13
66090;BME280;53113;45.602;11.904;2022-08-18T02:53:46;100910.70;;;23.71;72.21
66090;BME280;53113;45.602;11.904;2022-08-18T02:56:20;100925.27;;;23.75;72.14
66090;BME280;53113;45.602;11.904;2022-08-18T02:58:49;100928.01;;;23.78;72.40
66090;BME280;53113;45.602;11.904;2022-08-18T03:01:28;100917.64;;;23.81;72.02
66090;BME280;53113;45.602;11.904;2022-08-18T03:03:55;100916.52;;;23.83;72.20
66090;BME280;53113;45.602;11.904;2022-08-18T03:06:23;100901.43;;;23.84;72.25
66090;BME280;53113;45.602;11.904;2022-08-18T03:08:49;100887.80;;;23.85;72.24
66090;BME280;53113;45.602;11.904;2022-08-18T03:11:27;100885.02;;;23.89;72.33
66090;BME280;53113;45.602;11.904;2022-08-18T03:13:54;100879.06;;;23.91;72.18
66090;BME280;53113;45.602;11.904;2022-08-18T03:16:21;100877.67;;;23.93;72.17
66090;BME280;53113;45.602;11.904;2022-08-18T03:18:50;100876.67;;;23.94;72.15
66090;BME280;53113;45.602;11.904;2022-08-18T03:21:23;100877.55;;;23.94;72.25
66090;BME280;53113;45.602;11.904;2022-08-18T03:23:51;100876.71;;;23.95;72.05
66090;BME280;53113;45.602;11.904;2022-08-18T03:26:18;100898.02;;;23.99;72.17
66090;BME280;53113;45.602;11.904;2022-08-18T03:28:46;100911.84;;;24.02;71.92
66090;BME280;53113;45.602;11.904;2022-08-18T03:31:13;100910.20;;;24.06;71.93
66090;BME280;53113;45.602;11.904;2022-08-18T03:33:40;100911.20;;;24.07;71.92
66090;BME280;53113;45.602;11.904;2022-08-18T03:36:10;100914.95;;;24.07;72.11
66090;BME280;53113;45.602;11.904;2022-08-18T03:38:37;100904.86;;;24.07;72.03
66090;BME280;53113;45.602;11.904;2022-08-18T03:41:06;100906.32;;;24.08;71.99
66090;BME280;53113;45.602;11.904;2022-08-18T03:43:34;100915.73;;;24.11;72.10
66090;BME280;53113;45.602;11.904;2022-08-18T03:46:01;100916.96;;;24.15;71.96
66090;BME280;53113;45.602;11.904;2022-08-18T03:48:28;100907.30;;;24.19;72.08
66090;BME280;53113;45.602;11.904;2022-08-18T03:50:54;100904.84;;;24.21;72.05
66090;BME280;53113;45.602;11.904;2022-08-18T03:53:20;100919.03;;;24.20;72.05
66090;BME280;53113;45.602;11.904;2022-08-18T03:55:45;100957.60;;;24.21;72.20
66090;BME280;53113;45.602;11.904;2022-08-18T03:58:11;101020.22;;;24.23;72.24
66090;BME280;53113;45.602;11.904;2022-08-18T04:00:40;101109.23;;;24.24;72.39
66090;BME280;53113;45.602;11.904;2022-08-18T04:03:06;101168.98;;;24.24;72.49
66090;BME280;53113;45.602;11.904;2022-08-18T04:05:32;101187.83;;;24.23;73.39
66090;BME280;53113;45.602;11.904;2022-08-18T04:08:00;101156.20;;;24.16;74.54
66090;BME280;53113;45.602;11.904;2022-08-18T04:10:28;101167.05;;;24.06;78.76
66090;BME280;53113;45.602;11.904;2022-08-18T04:12:54;101155.45;;;23.93;80.82
66090;BME280;53113;45.602;11.904;2022-08-18T04:15:19;101134.29;;;23.77;81.64
66090;BME280;53113;45.602;11.904;2022-08-18T04:17:45;101126.53;;;23.65;82.55
66090;BME280;53113;45.602;11.904;2022-08-18T04:20:11;101107.77;;;23.55;82.83
66090;BME280;53113;45.602;11.904;2022-08-18T04:22:38;101063.91;;;23.42;81.52
66090;BME280;53113;45.602;11.904;2022-08-18T04:25:05;101036.96;;;23.32;81.10
66090;BME280;53113;45.602;11.904;2022-08-18T04:27:35;101036.94;;;23.22;80.64
66090;BME280;53113;45.602;11.904;2022-08-18T04:30:01;101032.96;;;23.12;80.44
66090;BME280;53113;45.602;11.904;2022-08-18T04:32:29;101022.94;;;23.01;80.27
66090;BME280;53113;45.602;11.904;2022-08-18T04:34:55;101019.58;;;22.90;80.01
66090;BME280;53113;45.602;11.904;2022-08-18T04:37:20;100997.31;;;22.77;79.42
66090;BME280;53113;45.602;11.904;2022-08-18T04:39:46;100977.02;;;22.66;79.18
66090;BME280;53113;45.602;11.904;2022-08-18T04:42:13;100968.00;;;22.58;79.27
66090;BME280;53113;45.602;11.904;2022-08-18T04:44:40;100953.83;;;22.48;79.25
66090;BME280;53113;45.602;11.904;2022-08-18T04:47:07;100944.45;;;22.38;78.88
66090;BME280;53113;45.602;11.904;2022-08-18T04:49:34;100923.24;;;22.27;78.68
66090;BME280;53113;45.602;11.904;2022-08-18T04:52:00;100904.79;;;22.18;78.81
66090;BME280;53113;45.602;11.904;2022-08-18T04:54:44;100880.31;;;22.11;78.48
66090;BME280;53113;45.602;11.904;2022-08-18T04:57:13;100869.04;;;22.04;78.24
66090;BME280;53113;45.602;11.904;2022-08-18T04:59:41;100856.44;;;21.95;78.10
66090;BME280;53113;45.602;11.904;2022-08-18T05:02:08;100850.20;;;21.89;78.00
66090;BME280;53113;45.602;11.904;2022-08-18T05:04:38;100845.09;;;21.80;77.80
66090;BME280;53113;45.602;11.904;2022-08-18T05:07:10;100842.03;;;21.76;77.94
66090;BME280;53113;45.602;11.904;2022-08-18T05:09:37;100839.41;;;21.72;77.96
66090;BME280;53113;45.602;11.904;2022-08-18T05:12:05;100847.95;;;21.67;77.87
66090;BME280;53113;45.602;11.904;2022-08-18T05:14:31;100852.66;;;21.62;78.02
66090;BME280;53113;45.602;11.904;2022-08-18T05:16:58;100842.79;;;21.59;78.11
66090;BME280;53113;45.602;11.904;2022-08-18T05:19:25;100845.73;;;21.58;78.07
66090;BME280;53113;45.602;11.904;2022-08-18T05:21:52;100857.05;;;21.59;78.12
66090;BME280;53113;45.602;11.904;2022-08-18T05:24:20;100869.72;;;21.58;78.04
66090;BME280;53113;45.602;11.904;2022-08-18T05:26:50;100874.33;;;21.57;78.30
66090;BME280;53113;45.602;11.904;2022-08-18T05:29:18;100874.64;;;21.56;78.19
66090;BME280;53113;45.602;11.904;2022-08-18T05:31:48;100887.69;;;21.55;78.13
66090;BME280;53113;45.602;11.904;2022-08-18T05:34:15;100901.13;;;21.56;78.27
66090;BME280;53113;45.602;11.904;2022-08-18T05:41:51;100921.05;;;21.63;78.06
66090;BME280;53113;45.602;11.904;2022-08-18T05:44:25;100932.91;;;21.63;77.91
66090;BME280;53113;45.602;11.904;2022-08-18T05:47:05;100943.41;;;21.63;77.73
66090;BME280;53113;45.602;11.904;2022-08-18T05:49:34;100956.75;;;21.64;77.78
66090;BME280;53113;45.602;11.904;2022-08-18T05:52:04;100965.48;;;21.67;77.74
66090;BME280;53113;45.602;11.904;2022-08-18T05:54:38;100971.03;;;21.69;77.81
66090;BME280;53113;45.602;11.904;2022-08-18T05:57:26;100976.00;;;21.71;77.98
66090;BME280;53113;45.602;11.904;2022-08-18T05:59:56;100965.13;;;21.71;78.05
66090;BME280;53113;45.602;11.904;2022-08-18T06:05:13;100950.73;;;21.77;78.21
66090;BME280;53113;45.602;11.904;2022-08-18T06:07:54;100939.20;;;21.83;78.42
66090;BME280;53113;45.602;11.904;2022-08-18T06:10:22;100925.95;;;21.87;78.41
66090;BME280;53113;45.602;11.904;2022-08-18T06:12:51;100918.64;;;21.90;78.47
66090;BME280;53113;45.602;11.904;2022-08-18T06:18:25;100910.89;;;21.96;78.38
66090;BME280;53113;45.602;11.904;2022-08-18T06:23:59;100913.20;;;22.10;78.71
66090;BME280;53113;45.602;11.904;2022-08-18T06:32:20;100914.49;;;22.42;80.08
66090;BME280;53113;45.602;11.904;2022-08-18T06:38:06;100924.07;;;22.74;80.02
66090;BME280;53113;45.602;11.904;2022-08-18T06:41:10;100916.16;;;22.90;80.02
66090;BME280;53113;45.602;11.904;2022-08-18T06:43:44;100914.30;;;23.02;80.18
66090;BME280;53113;45.602;11.904;2022-08-18T06:46:22;100917.39;;;23.16;80.32
66090;BME280;53113;45.602;11.904;2022-08-18T06:48:55;100922.78;;;23.31;80.03
66090;BME280;53113;45.602;11.904;2022-08-18T06:51:26;100909.98;;;23.41;79.81
66090;BME280;53113;45.602;11.904;2022-08-18T07:01:52;100871.10;;;23.91;79.52
66090;BME280;53113;45.602;11.904;2022-08-18T07:04:44;100884.06;;;24.07;79.47
66090;BME280;53113;45.602;11.904;2022-08-18T07:09:57;100877.09;;;24.35;78.97
66090;BME280;53113;45.602;11.904;2022-08-18T07:12:26;100873.19;;;24.47;79.01
66090;BME280;53113;45.602;11.904;2022-08-18T07:14:58;100873.98;;;24.60;79.35
66090;BME280;53113;45.602;11.904;2022-08-18T07:17:30;100862.86;;;24.72;78.36
66090;BME280;53113;45.602;11.904;2022-08-18T07:20:30;100872.70;;;24.82;78.05
66090;BME280;53113;45.602;11.904;2022-08-18T07:23:02;100878.57;;;24.93;77.82
66090;BME280;53113;45.602;11.904;2022-08-18T07:25:44;100890.86;;;25.04;77.84
66090;BME280;53113;45.602;11.904;2022-08-18T07:28:31;100902.21;;;25.18;78.42
66090;BME280;53113;45.602;11.904;2022-08-18T07:31:40;100909.13;;;25.38;78.38
66090;BME280;53113;45.602;11.904;2022-08-18T07:36:41;100915.17;;;25.65;76.27
66090;BME280;53113;45.602;11.904;2022-08-18T07:39:21;100918.46;;;25.75;76.06
66090;BME280;53113;45.602;11.904;2022-08-18T07:41:57;100928.45;;;25.83;76.19
66090;BME280;53113;45.602;11.904;2022-08-18T07:44:28;100942.67;;;25.94;75.97
66090;BME280;53113;45.602;11.904;2022-08-18T07:47:06;100952.55;;;26.01;75.60
66090;BME280;53113;45.602;11.904;2022-08-18T07:49:36;100948.48;;;26.08;75.56
66090;BME280;53113;45.602;11.904;2022-08-18T07:52:43;100940.38;;;26.14;75.34
66090;BME280;53113;45.602;11.904;2022-08-18T07:57:41;100944.55;;;26.34;75.97
66090;BME280;53113;45.602;11.904;2022-08-18T08:00:22;100969.63;;;26.49;76.20
66090;BME280;53113;45.602;11.904;2022-08-18T08:05:24;100971.11;;;26.74;75.56
66090;BME280;53113;45.602;11.904;2022-08-18T08:07:58;100940.55;;;26.85;74.15
66090;BME280;53113;45.602;11.904;2022-08-18T08:10:34;100932.90;;;26.91;73.18
66090;BME280;53113;45.602;11.904;2022-08-18T08:13:17;100954.02;;;26.98;73.18
66090;BME280;53113;45.602;11.904;2022-08-18T08:16:09;100982.89;;;27.01;72.23
66090;BME280;53113;45.602;11.904;2022-08-18T08:25:13;101033.02;;;26.76;69.25
66090;BME280;53113;45.602;11.904;2022-08-18T08:30:20;101046.16;;;26.38;67.27
66090;BME280;53113;45.602;11.904;2022-08-18T08:36:11;101021.29;;;25.91;66.49
66090;BME280;53113;45.602;11.904;2022-08-18T08:38:46;101035.41;;;25.68;66.18
66090;BME280;53113;45.602;11.904;2022-08-18T08:41:37;101025.02;;;25.50;65.90
66090;BME280;53113;45.602;11.904;2022-08-18T08:44:12;100951.74;;;25.31;65.89
66090;BME280;53113;45.602;11.904;2022-08-18T08:46:54;100884.02;;;25.13;65.72
66090;BME280;53113;45.602;11.904;2022-08-18T08:49:31;100898.84;;;24.98;65.83
66090;BME280;53113;45.602;11.904;2022-08-18T08:52:16;100935.91;;;24.86;66.23
66090;BME280;53113;45.602;11.904;2022-08-18T08:57:18;100936.73;;;24.72;67.22
66090;BME280;53113;45.602;11.904;2022-08-18T08:59:47;100915.70;;;24.69;67.65
66090;BME280;53113;45.602;11.904;2022-08-18T09:02:49;100903.05;;;24.70;68.07
66090;BME280;53113;45.602;11.904;2022-08-18T09:11:02;100896.65;;;25.11;68.92
66090;BME280;53113;45.602;11.904;2022-08-18T09:21:30;100883.58;;;25.76;68.21
66090;BME280;53113;45.602;11.904;2022-08-18T09:24:17;100880.34;;;25.90;68.20
66090;BME280;53113;45.602;11.904;2022-08-18T09:26:49;100878.05;;;26.03;67.58
66090;BME280;53113;45.602;11.904;2022-08-18T09:37:37;100866.39;;;26.39;65.15
66090;BME280;53113;45.602;11.904;2022-08-18T09:40:16;100851.52;;;26.44;64.72
66090;BME280;53113;45.602;11.904;2022-08-18T09:43:37;100837.16;;;26.50;64.42
66090;BME280;53113;45.602;11.904;2022-08-18T09:46:05;100832.27;;;26.56;63.97
66090;BME280;53113;45.602;11.904;2022-08-18T09:48:33;100843.27;;;26.58;63.48
66090;BME280;53113;45.602;11.904;2022-08-18T09:56:53;100839.66;;;26.69;62.60
66090;BME280;53113;45.602;11.904;2022-08-18T09:59:03;100838.56;;;26.72;62.17
66090;BME280;53113;45.602;11.904;2022-08-18T10:06:42;100924.44;;;26.68;61.13
66090;BME280;53113;45.602;11.904;2022-08-18T10:22:42;100973.23;;;26.05;65.04
66090;BME280;53113;45.602;11.904;2022-08-18T10:25:09;100961.11;;;25.89;65.37
66090;BME280;53113;45.602;11.904;2022-08-18T10:32:54;100895.80;;;25.36;66.16
66090;BME280;53113;45.602;11.904;2022-08-18T10:38:34;100897.92;;;25.03;66.85
66090;BME280;53113;45.602;11.904;2022-08-18T10:41:07;100896.48;;;24.90;67.06
66090;BME280;53113;45.602;11.904;2022-08-18T10:43:42;100904.02;;;24.75;67.35
66090;BME280;53113;45.602;11.904;2022-08-18T10:46:18;100928.89;;;24.63;67.71
66090;BME280;53113;45.602;11.904;2022-08-18T10:49:01;100964.66;;;24.49;68.04
66090;BME280;53113;45.602;11.904;2022-08-18T10:51:45;100974.81;;;24.36;68.26
66090;BME280;53113;45.602;11.904;2022-08-18T11:00:00;101072.09;;;24.09;69.33
66090;BME280;53113;45.602;11.904;2022-08-18T11:05:22;101111.80;;;23.84;75.71
66090;BME280;53113;45.602;11.904;2022-08-18T11:07:56;101024.48;;;23.65;78.04
66090;BME280;53113;45.602;11.904;2022-08-18T11:10:44;101000.56;;;23.48;77.46
66090;BME280;53113;45.602;11.904;2022-08-18T11:19:02;100752.39;;;23.13;77.85
66090;BME280;53113;45.602;11.904;2022-08-18T11:21:50;100701.90;;;23.01;77.53
66090;BME280;53113;45.602;11.904;2022-08-18T11:40:00;100526.38;;;22.39;75.97
66090;BME280;53113;45.602;11.904;2022-08-18T11:42:33;100624.04;;;22.32;76.08
66090;BME280;53113;45.602;11.904;2022-08-18T11:45:17;100675.46;;;22.25;75.93
66090;BME280;53113;45.602;11.904;2022-08-18T11:48:31;100682.44;;;22.23;75.87
66090;BME280;53113;45.602;11.904;2022-08-18T11:51:09;100674.92;;;22.20;75.74
66090;BME280;53113;45.602;11.904;2022-08-18T11:53:41;100673.20;;;22.15;75.38
66090;BME280;53113;45.602;11.904;2022-08-18T12:04:05;100898.89;;;22.00;75.22
66090;BME280;53113;45.602;11.904;2022-08-18T12:06:33;100927.91;;;21.96;74.67
66090;BME280;53113;45.602;11.904;2022-08-18T12:09:22;100906.42;;;21.89;74.35
66090;BME280;53113;45.602;11.904;2022-08-18T12:11:58;100922.55;;;21.77;74.18
66090;BME280;53113;45.602;11.904;2022-08-18T12:14:29;100912.11;;;21.69;74.17
66090;BME280;53113;45.602;11.904;2022-08-18T12:16:56;100910.14;;;21.62;74.19
66090;BME280;53113;45.602;11.904;2022-08-18T12:19:23;100911.17;;;21.59;74.16
66090;BME280;53113;45.602;11.904;2022-08-18T12:21:59;100921.34;;;21.57;74.30
66090;BME280;53113;45.602;11.904;2022-08-18T12:24:27;100916.27;;;21.58;74.80
66090;BME280;53113;45.602;11.904;2022-08-18T12:26:53;100908.46;;;21.58;75.00
66090;BME280;53113;45.602;11.904;2022-08-18T12:29:20;100910.45;;;21.62;75.33
66090;BME280;53113;45.602;11.904;2022-08-18T12:31:48;100914.98;;;21.70;75.75
66090;BME280;53113;45.602;11.904;2022-08-18T12:34:16;100930.86;;;21.80;76.18
66090;BME280;53113;45.602;11.904;2022-08-18T12:36:42;100941.42;;;21.93;76.32
66090;BME280;53113;45.602;11.904;2022-08-18T12:39:07;100942.02;;;22.02;76.42
66090;BME280;53113;45.602;11.904;2022-08-18T12:41:33;100941.87;;;22.17;76.48
66090;BME280;53113;45.602;11.904;2022-08-18T12:43:59;100943.86;;;22.31;76.75
66090;BME280;53113;45.602;11.904;2022-08-18T12:46:25;100936.56;;;22.48;76.66
66090;BME280;53113;45.602;11.904;2022-08-18T12:48:51;100945.25;;;22.66;76.63
66090;BME280;53113;45.602;11.904;2022-08-18T12:51:17;100945.63;;;22.78;76.53
66090;BME280;53113;45.602;11.904;2022-08-18T12:53:43;100948.05;;;22.93;76.11
66090;BME280;53113;45.602;11.904;2022-08-18T12:56:25;100947.58;;;23.05;75.96
66090;BME280;53113;45.602;11.904;2022-08-18T12:58:52;100950.20;;;23.22;75.99
66090;BME280;53113;45.602;11.904;2022-08-18T13:01:19;100966.11;;;23.38;75.86
66090;BME280;53113;45.602;11.904;2022-08-18T13:03:46;100972.73;;;23.53;75.68
66090;BME280;53113;45.602;11.904;2022-08-18T13:06:14;100973.64;;;23.70;75.76
66090;BME280;53113;45.602;11.904;2022-08-18T13:08:40;100975.05;;;23.89;76.13
66090;BME280;53113;45.602;11.904;2022-08-18T13:11:06;100979.23;;;24.16;76.40
66090;BME280;53113;45.602;11.904;2022-08-18T13:13:38;100996.28;;;24.45;76.22
66090;BME280;53113;45.602;11.904;2022-08-18T13:16:08;101001.46;;;24.72;75.96
66090;BME280;53113;45.602;11.904;2022-08-18T13:18:36;101011.67;;;24.96;75.34
66090;BME280;53113;45.602;11.904;2022-08-18T13:21:04;101014.31;;;25.24;75.10
66090;BME280;53113;45.602;11.904;2022-08-18T13:23:31;101011.98;;;25.47;74.84
66090;BME280;53113;45.602;11.904;2022-08-18T13:25:59;101009.35;;;25.70;74.78
66090;BME280;53113;45.602;11.904;2022-08-18T13:28:26;101001.63;;;25.96;73.64
66090;BME280;53113;45.602;11.904;2022-08-18T13:30:53;101004.85;;;26.16;72.58
66090;BME280;53113;45.602;11.904;2022-08-18T13:33:19;101006.48;;;26.34;72.07
66090;BME280;53113;45.602;11.904;2022-08-18T13:35:46;101004.27;;;26.52;71.23
66090;BME280;53113;45.602;11.904;2022-08-18T13:38:14;100993.52;;;26.64;70.45
66090;BME280;53113;45.602;11.904;2022-08-18T13:40:40;100978.60;;;26.75;69.87
66090;BME280;53113;45.602;11.904;2022-08-18T13:43:07;100973.50;;;26.86;69.22
66090;BME280;53113;45.602;11.904;2022-08-18T13:45:34;100977.15;;;26.97;68.82
66090;BME280;53113;45.602;11.904;2022-08-18T13:48:00;100975.95;;;27.07;68.26
66090;BME280;53113;45.602;11.904;2022-08-18T13:50:25;100978.90;;;27.20;67.35
66090;BME280;53113;45.602;11.904;2022-08-18T13:52:51;100958.31;;;27.27;66.33
66090;BME280;53113;45.602;11.904;2022-08-18T13:55:19;100951.32;;;27.31;65.79
66090;BME280;53113;45.602;11.904;2022-08-18T13:57:45;100939.16;;;27.39;65.45
66090;BME280;53113;45.602;11.904;2022-08-18T14:00:19;100926.71;;;27.48;65.01
66090;BME280;53113;45.602;11.904;2022-08-18T14:02:46;100929.87;;;27.58;64.51
66090;BME280;53113;45.602;11.904;2022-08-18T14:05:15;100913.69;;;27.67;64.18
66090;BME280;53113;45.602;11.904;2022-08-18T14:07:42;100921.66;;;27.72;63.65
66090;BME280;53113;45.602;11.904;2022-08-18T14:10:08;100911.04;;;27.74;62.83
66090;BME280;53113;45.602;11.904;2022-08-18T14:12:35;100893.72;;;27.68;62.13
66090;BME280;53113;45.602;11.904;2022-08-18T14:15:06;100895.42;;;27.57;61.17
66090;BME280;53113;45.602;11.904;2022-08-18T14:17:33;100889.79;;;27.41;60.64
66090;BME280;53113;45.602;11.904;2022-08-18T14:19:59;100888.38;;;27.25;60.35
66090;BME280;53113;45.602;11.904;2022-08-18T14:22:43;100882.91;;;27.08;59.88
66090;BME280;53113;45.602;11.904;2022-08-18T14:25:29;100875.85;;;26.92;60.08
66090;BME280;53113;45.602;11.904;2022-08-18T14:28:14;100876.23;;;26.84;60.15
66090;BME280;53113;45.602;11.904;2022-08-18T14:30:43;100879.23;;;26.84;60.54
66090;BME280;53113;45.602;11.904;2022-08-18T14:33:11;100878.94;;;26.88;61.13
66090;BME280;53113;45.602;11.904;2022-08-18T14:35:41;100881.34;;;26.98;61.21
66090;BME280;53113;45.602;11.904;2022-08-18T14:38:07;100878.39;;;27.11;61.45
66090;BME280;53113;45.602;11.904;2022-08-18T14:40:33;100882.41;;;27.25;61.37
66090;BME280;53113;45.602;11.904;2022-08-18T14:43:01;100877.27;;;27.41;61.11
66090;BME280;53113;45.602;11.904;2022-08-18T14:45:28;100872.48;;;27.57;61.14
66090;BME280;53113;45.602;11.904;2022-08-18T14:47:54;100862.08;;;27.72;60.99
66090;BME280;53113;45.602;11.904;2022-08-18T14:50:21;100856.70;;;27.87;60.71
66090;BME280;53113;45.602;11.904;2022-08-18T14:52:48;100847.35;;;27.97;59.58
66090;BME280;53113;45.602;11.904;2022-08-18T14:55:15;100845.11;;;28.01;58.98
66090;BME280;53113;45.602;11.904;2022-08-18T14:57:42;100849.95;;;28.00;58.38
66090;BME280;53113;45.602;11.904;2022-08-18T15:00:12;100843.64;;;27.94;58.04
66090;BME280;53113;45.602;11.904;2022-08-18T15:02:44;100824.52;;;27.85;57.78
66090;BME280;53113;45.602;11.904;2022-08-18T15:05:12;100827.83;;;27.80;57.94
66090;BME280;53113;45.602;11.904;2022-08-18T15:07:39;100816.23;;;27.79;57.93
66090;BME280;53113;45.602;11.904;2022-08-18T15:10:07;100800.49;;;27.80;58.00
66090;BME280;53113;45.602;11.904;2022-08-18T15:12:34;100812.85;;;27.84;58.05
66090;BME280;53113;45.602;11.904;2022-08-18T15:15:05;100840.23;;;27.91;58.01
66090;BME280;53113;45.602;11.904;2022-08-18T15:17:33;100838.05;;;27.98;57.98
66090;BME280;53113;45.602;11.904;2022-08-18T15:20:04;100825.44;;;28.02;57.57
66090;BME280;53113;45.602;11.904;2022-08-18T15:22:29;100791.02;;;28.01;57.21
66090;BME280;53113;45.602;11.904;2022-08-18T15:25:14;100786.56;;;27.96;56.55
66090;BME280;53113;45.602;11.904;2022-08-18T15:27:59;100799.76;;;27.85;56.25
66090;BME280;53113;45.602;11.904;2022-08-18T15:30:25;100803.64;;;27.74;56.21
66090;BME280;53113;45.602;11.904;2022-08-18T15:32:50;100812.45;;;27.66;56.28